Time,TemperatureF,DewpointF,PressureIn,WindDirection,WindDirectionDegrees,WindSpeedMPH,WindSpeedGustMPH,Humidity,HourlyPrecipIn,Conditions,Clouds,dailyrainin,SoftwareType,DateUTC
2013-02-20 00:04:00,40.3,17.9,29.12,WNW,300,2.7,3.8,40,0.00,,,0.00,VWS V14.00,2013-02-20 05:04:00,
2013-02-20 00:09:00,39.9,17.6,29.14,WNW,300,3.4,4.3,40,0.00,,,0.00,VWS V14.00,2013-02-20 05:09:00,
2013-02-20 00:14:00,39.9,17.6,29.14,NW,322,3.4,4.3,40,0.00,,,0.00,VWS V14.00,2013-02-20 05:14:00,
2013-02-20 00:20:00,39.6,17.2,29.14,NW,322,2.7,3.4,40,0.00,,,0.00,VWS V14.00,2013-02-20 05:20:00,
2013-02-20 00:25:00,39.6,17.2,29.14,West,278,2.9,4.3,40,0.00,,,0.00,VWS V14.00,2013-02-20 05:25:00,
2013-02-20 00:30:00,39.2,16.9,29.14,NW,322,2.9,3.6,40,0.00,,,0.00,VWS V14.00,2013-02-20 05:30:00,
2013-02-20 00:35:00,39.0,17.3,29.14,NW,322,2.5,3.8,41,0.00,,,0.00,VWS V14.00,2013-02-20 05:35:00,
2013-02-20 00:40:00,38.7,16.4,29.14,WNW,300,2.9,3.4,40,0.00,,,0.00,VWS V14.00,2013-02-20 05:40:00,
2013-02-20 00:45:00,38.3,17.2,29.14,NW,322,1.3,2.2,42,0.00,,,0.00,VWS V14.00,2013-02-20 05:45:00,
2013-02-20 00:50:00,37.9,17.5,29.14,WNW,300,0.0,2.7,43,0.00,,,0.00,VWS V14.00,2013-02-20 05:50:00,
2013-02-20 00:55:00,37.6,17.7,29.14,WNW,300,0.9,2.5,44,0.00,,,0.00,VWS V14.00,2013-02-20 05:55:00,
2013-02-20 01:00:00,36.9,17.5,29.14,West,278,0.0,2.5,45,0.00,,,0.00,VWS V14.00,2013-02-20 06:00:00,
2013-02-20 01:05:00,36.3,17.5,29.14,WNW,300,2.9,2.9,46,0.00,,,0.00,VWS V14.00,2013-02-20 06:05:00,
2013-02-20 01:10:00,36.0,17.7,29.17,WNW,300,1.3,2.7,47,0.00,,,0.00,VWS V14.00,2013-02-20 06:10:00,
2013-02-20 01:15:00,35.4,18.2,29.17,West,278,0.0,1.6,49,0.00,,,0.00,VWS V14.00,2013-02-20 06:15:00,
2013-02-20 01:21:00,35.1,18.3,29.17,SW,232,1.3,2.5,50,0.00,,,0.00,VWS V14.00,2013-02-20 06:21:00,
2013-02-20 01:26:00,34.9,17.7,29.17,WNW,300,2.2,3.4,49,0.00,,,0.00,VWS V14.00,2013-02-20 06:26:00,
2013-02-20 01:31:00,35.2,17.5,29.17,West,278,1.3,3.4,48,0.00,,,0.00,VWS V14.00,2013-02-20 06:31:00,
2013-02-20 01:36:00,35.4,16.7,29.17,West,278,2.2,3.4,46,0.00,,,0.00,VWS V14.00,2013-02-20 06:36:00,
2013-02-20 01:41:00,35.4,16.2,29.17,WNW,300,2.0,4.0,45,0.00,,,0.00,VWS V14.00,2013-02-20 06:41:00,
2013-02-20 01:46:00,35.6,16.4,29.17,NW,322,1.1,3.4,45,0.00,,,0.00,VWS V14.00,2013-02-20 06:46:00,
2013-02-20 01:51:00,35.6,16.4,29.20,WNW,300,2.0,3.4,45,0.00,,,0.00,VWS V14.00,2013-02-20 06:51:00,
2013-02-20 01:56:00,35.6,16.4,29.20,West,278,1.6,1.6,45,0.00,,,0.00,VWS V14.00,2013-02-20 06:56:00,
2013-02-20 02:01:00,35.8,16.0,29.20,NW,322,2.5,2.7,44,0.00,,,0.00,VWS V14.00,2013-02-20 07:01:00,
2013-02-20 02:06:00,35.8,15.5,29.20,WNW,300,2.5,2.5,43,0.00,,,0.00,VWS V14.00,2013-02-20 07:06:00,
2013-02-20 02:11:00,35.8,16.5,29.20,WNW,300,0.0,0.0,45,0.00,,,0.00,VWS V14.00,2013-02-20 07:11:00,
2013-02-20 02:16:00,35.4,16.2,29.20,West,278,1.1,2.2,45,0.00,,,0.00,VWS V14.00,2013-02-20 07:16:00,
2013-02-20 02:22:00,35.6,15.9,29.17,WNW,300,2.9,2.9,44,0.00,,,0.00,VWS V14.00,2013-02-20 07:22:00,
2013-02-20 02:27:00,35.4,16.7,29.17,NW,322,0.0,0.0,46,0.00,,,0.00,VWS V14.00,2013-02-20 07:27:00,
2013-02-20 02:32:00,34.7,16.5,29.17,West,278,0.0,0.0,47,0.00,,,0.00,VWS V14.00,2013-02-20 07:32:00,
2013-02-20 02:37:00,33.6,17.0,29.17,SSE,165,0.0,0.0,50,0.00,,,0.00,VWS V14.00,2013-02-20 07:37:00,
2013-02-20 02:42:00,32.9,16.8,29.17,SSE,165,1.6,1.6,51,0.00,,,0.00,VWS V14.00,2013-02-20 07:42:00,
2013-02-20 02:47:00,32.4,16.7,29.17,SSE,165,0.0,0.0,52,0.00,,,0.00,VWS V14.00,2013-02-20 07:47:00,
2013-02-20 02:52:00,31.6,16.5,29.17,SSE,165,0.0,0.0,53,0.00,,,0.00,VWS V14.00,2013-02-20 07:52:00,
2013-02-20 02:57:00,31.1,17.2,29.17,NW,322,0.0,0.0,56,0.00,,,0.00,VWS V14.00,2013-02-20 07:57:00,
2013-02-20 03:05:00,30.2,17.2,29.17,NNW,345,0.0,0.0,58,0.00,,,0.00,VWS V14.00,2013-02-20 08:05:00,
2013-02-20 03:10:00,29.8,17.3,29.17,NW,322,0.0,0.0,59,0.00,,,0.00,VWS V14.00,2013-02-20 08:10:00,
2013-02-20 03:15:00,29.5,18.1,29.17,NNW,345,0.0,1.3,62,0.00,,,0.00,VWS V14.00,2013-02-20 08:15:00,
2013-02-20 03:20:00,29.1,18.1,29.17,North,8,0.0,0.0,63,0.00,,,0.00,VWS V14.00,2013-02-20 08:20:00,
2013-02-20 03:25:00,28.9,17.9,29.17,NNW,345,0.0,0.0,63,0.00,,,0.00,VWS V14.00,2013-02-20 08:25:00,
2013-02-20 03:30:00,28.6,17.6,29.17,North,8,0.0,0.0,63,0.00,,,0.00,VWS V14.00,2013-02-20 08:30:00,
2013-02-20 03:35:00,28.6,18.0,29.17,North,8,1.3,2.2,64,0.00,,,0.00,VWS V14.00,2013-02-20 08:35:00,
2013-02-20 03:40:00,29.1,18.1,29.17,NW,322,1.1,2.0,63,0.00,,,0.00,VWS V14.00,2013-02-20 08:40:00,
2013-02-20 03:45:00,28.8,18.1,29.17,NNW,345,0.0,1.6,64,0.00,,,0.00,VWS V14.00,2013-02-20 08:45:00,
2013-02-20 03:50:00,29.1,18.1,29.17,North,8,0.0,2.5,63,0.00,,,0.00,VWS V14.00,2013-02-20 08:50:00,
2013-02-20 03:55:00,29.3,18.3,29.20,WSW,255,0.0,2.9,63,0.00,,,0.00,VWS V14.00,2013-02-20 08:55:00,
2013-02-20 04:01:00,29.1,18.1,29.20,NW,322,0.0,1.6,63,0.00,,,0.00,VWS V14.00,2013-02-20 09:01:00,
2013-02-20 04:06:00,29.3,18.3,29.20,SW,232,0.0,1.6,63,0.00,,,0.00,VWS V14.00,2013-02-20 09:06:00,
2013-02-20 04:11:00,29.3,18.3,29.20,NW,322,0.0,0.0,63,0.00,,,0.00,VWS V14.00,2013-02-20 09:11:00,
2013-02-20 04:16:00,29.1,17.7,29.20,NW,322,0.0,0.0,62,0.00,,,0.00,VWS V14.00,2013-02-20 09:16:00,
2013-02-20 04:21:00,28.9,17.9,29.20,NW,322,0.0,0.0,63,0.00,,,0.00,VWS V14.00,2013-02-20 09:21:00,
2013-02-20 04:26:00,28.8,17.4,29.20,NE,52,0.0,0.0,62,0.00,,,0.00,VWS V14.00,2013-02-20 09:26:00,
2013-02-20 04:31:00,28.4,17.8,29.20,NE,52,0.0,0.0,64,0.00,,,0.00,VWS V14.00,2013-02-20 09:31:00,
2013-02-20 04:36:00,28.2,17.3,29.20,East,98,0.0,0.9,63,0.00,,,0.00,VWS V14.00,2013-02-20 09:36:00,
2013-02-20 04:41:00,28.0,17.1,29.20,SSE,165,0.0,1.1,63,0.00,,,0.00,VWS V14.00,2013-02-20 09:41:00,
2013-02-20 04:46:00,27.9,17.3,29.20,SSE,165,0.0,0.0,64,0.00,,,0.00,VWS V14.00,2013-02-20 09:46:00,
2013-02-20 04:51:00,27.5,18.0,29.20,SSE,165,0.0,0.0,67,0.00,,,0.00,VWS V14.00,2013-02-20 09:51:00,
2013-02-20 04:56:00,27.1,17.6,29.20,SSE,165,0.0,0.0,67,0.00,,,0.00,VWS V14.00,2013-02-20 09:56:00,
2013-02-20 05:01:00,27.0,17.5,29.20,SSE,165,0.0,0.0,67,0.00,,,0.00,VWS V14.00,2013-02-20 10:01:00,
2013-02-20 05:06:00,27.0,18.2,29.20,SSE,165,0.0,0.0,69,0.00,,,0.00,VWS V14.00,2013-02-20 10:06:00,
2013-02-20 05:11:00,26.6,18.1,29.20,SSE,165,0.0,0.0,70,0.00,,,0.00,VWS V14.00,2013-02-20 10:11:00,
2013-02-20 05:16:00,26.4,18.0,29.20,SSE,165,0.0,0.0,70,0.00,,,0.00,VWS V14.00,2013-02-20 10:16:00,
2013-02-20 05:21:00,26.2,18.1,29.20,SSE,165,0.0,0.0,71,0.00,,,0.00,VWS V14.00,2013-02-20 10:21:00,
2013-02-20 05:26:00,26.1,18.6,29.20,SSE,165,0.0,0.0,73,0.00,,,0.00,VWS V14.00,2013-02-20 10:26:00,
2013-02-20 05:31:00,25.9,18.8,29.20,SSE,165,0.0,0.0,74,0.00,,,0.00,VWS V14.00,2013-02-20 10:31:00,
2013-02-20 05:36:00,25.7,18.6,29.17,SSE,165,0.0,0.0,74,0.00,,,0.00,VWS V14.00,2013-02-20 10:36:00,
2013-02-20 05:41:00,25.5,18.7,29.17,SSE,165,0.0,0.0,75,0.00,,,0.00,VWS V14.00,2013-02-20 10:41:00,
2013-02-20 05:46:00,25.3,18.5,29.17,SSE,165,0.0,0.0,75,0.00,,,0.00,VWS V14.00,2013-02-20 10:46:00,
2013-02-20 05:51:00,25.3,19.1,29.17,SSE,165,0.0,0.0,77,0.00,,,0.00,VWS V14.00,2013-02-20 10:51:00,
2013-02-20 05:56:00,25.3,19.1,29.17,SSE,165,0.0,0.0,77,0.00,,,0.00,VWS V14.00,2013-02-20 10:56:00,
2013-02-20 06:04:00,25.3,19.5,29.17,NW,322,0.0,0.0,78,0.00,,,0.00,VWS V14.00,2013-02-20 11:04:00,
2013-02-20 06:09:00,25.3,19.5,29.20,NW,322,0.0,0.0,78,0.00,,,0.00,VWS V14.00,2013-02-20 11:09:00,
2013-02-20 06:14:00,25.0,18.8,29.20,NW,322,0.0,0.0,77,0.00,,,0.00,VWS V14.00,2013-02-20 11:14:00,
2013-02-20 06:19:00,24.8,18.6,29.20,NW,322,0.0,0.0,77,0.00,,,0.00,VWS V14.00,2013-02-20 11:19:00,
2013-02-20 06:24:00,24.6,18.8,29.20,NW,322,0.0,0.0,78,0.00,,,0.00,VWS V14.00,2013-02-20 11:24:00,
2013-02-20 06:29:00,24.4,18.6,29.20,NW,322,0.0,0.0,78,0.00,,,0.00,VWS V14.00,2013-02-20 11:29:00,
2013-02-20 06:34:00,24.4,18.6,29.20,NW,322,0.0,0.0,78,0.00,,,0.00,VWS V14.00,2013-02-20 11:34:00,
2013-02-20 06:39:00,24.4,18.3,29.20,NW,322,0.0,0.0,77,0.00,,,0.00,VWS V14.00,2013-02-20 11:39:00,
2013-02-20 06:44:00,24.3,18.1,29.20,NW,322,0.0,0.0,77,0.00,,,0.00,VWS V14.00,2013-02-20 11:44:00,
2013-02-20 06:50:00,24.1,18.2,29.20,NW,322,0.0,0.0,78,0.00,,,0.00,VWS V14.00,2013-02-20 11:50:00,
2013-02-20 06:55:00,24.1,18.2,29.17,NW,322,0.0,0.0,78,0.00,,,0.00,VWS V14.00,2013-02-20 11:55:00,
2013-02-20 07:00:00,24.1,18.8,29.17,NW,322,0.0,0.0,80,0.00,,,0.00,VWS V14.00,2013-02-20 12:00:00,
2013-02-20 07:05:00,23.9,18.6,29.17,NW,322,0.0,0.0,80,0.00,,,0.00,VWS V14.00,2013-02-20 12:05:00,
2013-02-20 07:10:00,23.9,18.6,29.17,NW,322,0.0,0.0,80,0.00,,,0.00,VWS V14.00,2013-02-20 12:10:00,
2013-02-20 07:15:00,23.9,18.6,29.17,NNW,345,0.0,0.0,80,0.00,,,0.00,VWS V14.00,2013-02-20 12:15:00,
2013-02-20 07:20:00,24.1,19.1,29.17,NNW,345,0.0,0.0,81,0.00,,,0.00,VWS V14.00,2013-02-20 12:20:00,
2013-02-20 07:25:00,23.9,18.6,29.20,NNW,345,0.0,0.0,80,0.00,,,0.00,VWS V14.00,2013-02-20 12:25:00,
2013-02-20 07:30:00,24.1,18.8,29.20,NNW,345,0.0,0.0,80,0.00,,,0.00,VWS V14.00,2013-02-20 12:30:00,
2013-02-20 07:35:00,24.4,19.2,29.20,NNW,345,0.0,0.0,80,0.00,,,0.00,VWS V14.00,2013-02-20 12:35:00,
2013-02-20 07:40:00,24.6,19.3,29.20,NNW,345,0.0,0.0,80,0.00,,,0.00,VWS V14.00,2013-02-20 12:40:00,
2013-02-20 07:45:00,24.8,19.8,29.20,NNW,345,0.0,0.0,81,0.00,,,0.00,VWS V14.00,2013-02-20 12:45:00,
2013-02-20 07:51:00,25.0,19.7,29.20,North,8,0.0,0.0,80,0.00,,,0.00,VWS V14.00,2013-02-20 12:51:00,
2013-02-20 07:56:00,26.1,20.8,29.20,North,8,0.0,0.0,80,0.00,,,0.00,VWS V14.00,2013-02-20 12:56:00,
2013-02-20 08:01:00,26.2,20.9,29.20,NE,52,0.0,0.0,80,0.00,,,0.00,VWS V14.00,2013-02-20 13:01:00,
2013-02-20 08:06:00,27.1,21.8,29.23,NNE,30,0.0,0.0,80,0.00,,,0.00,VWS V14.00,2013-02-20 13:06:00,
2013-02-20 08:11:00,27.7,22.3,29.23,NW,322,0.0,0.0,80,0.00,,,0.00,VWS V14.00,2013-02-20 13:11:00,
2013-02-20 08:16:00,29.3,23.6,29.23,NW,322,0.0,0.0,79,0.00,,,0.00,VWS V14.00,2013-02-20 13:16:00,
2013-02-20 08:21:00,31.6,25.9,29.23,NW,322,0.0,0.0,79,0.00,,,0.00,VWS V14.00,2013-02-20 13:21:00,
2013-02-20 08:26:00,33.8,26.4,29.23,NE,52,0.0,1.1,74,0.00,,,0.00,VWS V14.00,2013-02-20 13:26:00,
2013-02-20 08:31:00,35.8,28.0,29.23,SW,232,0.0,1.3,73,0.00,,,0.00,VWS V14.00,2013-02-20 13:31:00,
2013-02-20 08:36:00,37.4,28.5,29.23,SW,232,0.0,0.0,70,0.00,,,0.00,VWS V14.00,2013-02-20 13:36:00,
2013-02-20 08:41:00,39.0,29.4,29.23,SW,232,1.6,2.0,68,0.00,,,0.00,VWS V14.00,2013-02-20 13:41:00,
2013-02-20 08:46:00,40.3,25.4,29.23,SW,232,2.0,2.2,55,0.00,,,0.00,VWS V14.00,2013-02-20 13:46:00,
2013-02-20 08:51:00,40.8,24.6,29.20,West,278,2.7,2.7,52,0.00,,,0.00,VWS V14.00,2013-02-20 13:51:00,
2013-02-20 08:56:00,41.7,22.0,29.20,WSW,255,1.6,4.3,45,0.00,,,0.00,VWS V14.00,2013-02-20 13:56:00,
2013-02-20 09:01:00,42.6,21.7,29.20,West,278,1.1,4.0,43,0.00,,,0.00,VWS V14.00,2013-02-20 14:01:00,
2013-02-20 09:06:00,42.6,20.6,29.23,West,278,2.2,4.3,41,0.00,,,0.00,VWS V14.00,2013-02-20 14:06:00,
2013-02-20 09:11:00,41.4,18.3,29.23,SSW,210,2.0,5.8,39,0.00,,,0.00,VWS V14.00,2013-02-20 14:11:00,
2013-02-20 09:16:00,41.5,18.4,29.23,SW,232,2.7,5.8,39,0.00,,,0.00,VWS V14.00,2013-02-20 14:16:00,
2013-02-20 09:21:00,41.5,18.4,29.23,NW,322,0.9,4.5,39,0.00,,,0.00,VWS V14.00,2013-02-20 14:21:00,
2013-02-20 09:26:00,42.8,19.6,29.23,SW,232,2.0,3.8,39,0.00,,,0.00,VWS V14.00,2013-02-20 14:26:00,
2013-02-20 09:31:00,43.0,19.7,29.23,WSW,255,1.6,3.8,39,0.00,,,0.00,VWS V14.00,2013-02-20 14:31:00,
2013-02-20 09:36:00,42.1,18.3,29.23,WNW,300,4.0,5.6,38,0.00,,,0.00,VWS V14.00,2013-02-20 14:36:00,
2013-02-20 09:41:00,42.8,19.0,29.23,WNW,300,2.0,4.3,38,0.00,,,0.00,VWS V14.00,2013-02-20 14:41:00,
2013-02-20 09:46:00,43.0,17.9,29.23,NW,322,3.1,6.9,36,0.00,,,0.00,VWS V14.00,2013-02-20 14:46:00,
2013-02-20 09:51:00,42.1,15.8,29.23,West,278,3.8,7.4,34,0.00,,,0.00,VWS V14.00,2013-02-20 14:51:00,
2013-02-20 09:56:00,42.3,17.2,29.23,SW,232,3.6,5.8,36,0.00,,,0.00,VWS V14.00,2013-02-20 14:56:00,
2013-02-20 10:01:00,41.7,15.4,29.23,West,278,2.5,6.3,34,0.00,,,0.00,VWS V14.00,2013-02-20 15:01:00,
2013-02-20 10:06:00,41.4,14.4,29.23,SSW,210,2.7,6.3,33,0.00,,,0.00,VWS V14.00,2013-02-20 15:06:00,
2013-02-20 10:11:00,41.9,15.6,29.23,South,188,4.0,4.9,34,0.00,,,0.00,VWS V14.00,2013-02-20 15:11:00,
2013-02-20 10:16:00,41.9,15.6,29.23,South,188,6.3,6.7,34,0.00,,,0.00,VWS V14.00,2013-02-20 15:16:00,
2013-02-20 10:21:00,42.4,16.7,29.23,NW,322,2.9,6.3,35,0.00,,,0.00,VWS V14.00,2013-02-20 15:21:00,
2013-02-20 10:26:00,42.8,16.4,29.23,West,278,6.0,6.0,34,0.00,,,0.00,VWS V14.00,2013-02-20 15:26:00,
2013-02-20 10:31:00,42.8,16.4,29.23,West,278,0.9,6.0,34,0.00,,,0.00,VWS V14.00,2013-02-20 15:31:00,
2013-02-20 10:36:00,43.2,16.0,29.26,West,278,3.1,4.7,33,0.00,,,0.00,VWS V14.00,2013-02-20 15:36:00,
2013-02-20 10:41:00,43.2,15.3,29.26,South,188,6.0,6.0,32,0.00,,,0.00,VWS V14.00,2013-02-20 15:41:00,
2013-02-20 10:46:00,43.7,16.5,29.26,WSW,255,2.7,6.0,33,0.00,,,0.00,VWS V14.00,2013-02-20 15:46:00,
2013-02-20 10:51:00,44.1,16.1,29.23,North,8,4.9,4.9,32,0.00,,,0.00,VWS V14.00,2013-02-20 15:51:00,
2013-02-20 10:56:00,44.2,15.5,29.23,SW,232,4.9,4.9,31,0.00,,,0.00,VWS V14.00,2013-02-20 15:56:00,
2013-02-20 11:01:00,44.8,16.0,29.23,West,278,3.6,4.0,31,0.00,,,0.00,VWS V14.00,2013-02-20 16:01:00,
2013-02-20 11:06:00,45.3,16.5,29.26,WNW,300,3.6,3.6,31,0.00,,,0.00,VWS V14.00,2013-02-20 16:06:00,
2013-02-20 11:11:00,46.2,17.3,29.26,WNW,300,2.5,3.4,31,0.00,,,0.00,VWS V14.00,2013-02-20 16:11:00,
2013-02-20 11:17:00,46.8,17.0,29.26,SW,232,4.0,4.9,30,0.00,,,0.00,VWS V14.00,2013-02-20 16:17:00,
2013-02-20 11:22:00,46.4,16.7,29.26,SW,232,3.1,4.3,30,0.00,,,0.00,VWS V14.00,2013-02-20 16:22:00,
2013-02-20 11:27:00,46.4,15.9,29.26,SW,232,2.7,2.7,29,0.00,,,0.00,VWS V14.00,2013-02-20 16:27:00,
2013-02-20 11:32:00,46.8,16.2,29.26,North,8,3.1,4.5,29,0.00,,,0.00,VWS V14.00,2013-02-20 16:32:00,
2013-02-20 11:37:00,46.9,16.4,29.23,NW,322,7.8,8.5,29,0.00,,,0.00,VWS V14.00,2013-02-20 16:37:00,
2013-02-20 11:42:00,47.7,17.8,29.23,WNW,300,2.7,4.3,30,0.00,,,0.00,VWS V14.00,2013-02-20 16:42:00,
2013-02-20 11:47:00,47.7,17.0,29.23,WNW,300,4.0,5.6,29,0.00,,,0.00,VWS V14.00,2013-02-20 16:47:00,
2013-02-20 11:52:00,49.1,18.2,29.23,SW,232,4.7,4.7,29,0.00,,,0.00,VWS V14.00,2013-02-20 16:52:00,
2013-02-20 11:57:00,48.9,17.3,29.23,WNW,300,2.7,4.3,28,0.00,,,0.00,VWS V14.00,2013-02-20 16:57:00,
2013-02-20 12:04:00,48.9,17.3,29.23,West,278,3.1,3.1,28,0.00,,,0.00,VWS V14.00,2013-02-20 17:04:00,
2013-02-20 12:09:00,49.3,17.6,29.23,WNW,300,6.3,10.5,28,0.00,,,0.00,VWS V14.00,2013-02-20 17:09:00,
2013-02-20 12:14:00,50.4,17.7,29.23,South,188,3.8,6.3,27,0.00,,,0.00,VWS V14.00,2013-02-20 17:14:00,
2013-02-20 12:19:00,50.4,17.7,29.23,NNW,345,5.8,5.8,27,0.00,,,0.00,VWS V14.00,2013-02-20 17:19:00,
2013-02-20 12:25:00,50.2,17.5,29.20,West,278,2.9,6.5,27,0.00,,,0.00,VWS V14.00,2013-02-20 17:25:00,
2013-02-20 12:30:00,50.2,17.5,29.20,WNW,300,1.3,6.5,27,0.00,,,0.00,VWS V14.00,2013-02-20 17:30:00,
2013-02-20 12:35:00,50.0,17.4,29.20,SW,232,6.0,8.1,27,0.00,,,0.00,VWS V14.00,2013-02-20 17:35:00,
2013-02-20 12:40:00,50.5,17.8,29.20,SW,232,5.4,6.7,27,0.00,,,0.00,VWS V14.00,2013-02-20 17:40:00,
2013-02-20 12:45:00,51.1,18.3,29.20,West,278,2.9,3.4,27,0.00,,,0.00,VWS V14.00,2013-02-20 17:45:00,
2013-02-20 12:50:00,50.5,17.8,29.20,WNW,300,5.4,6.5,27,0.00,,,0.00,VWS V14.00,2013-02-20 17:50:00,
2013-02-20 12:55:00,50.2,17.5,29.17,SE,142,2.7,6.0,27,0.00,,,0.00,VWS V14.00,2013-02-20 17:55:00,
2013-02-20 13:00:00,50.2,17.5,29.17,SE,142,0.0,4.9,27,0.00,,,0.00,VWS V14.00,2013-02-20 18:00:00,
2013-02-20 13:05:00,50.5,17.8,29.17,West,278,5.4,5.4,27,0.00,,,0.00,VWS V14.00,2013-02-20 18:05:00,
2013-02-20 13:10:00,51.4,18.6,29.20,SSW,210,6.0,6.0,27,0.00,,,0.00,VWS V14.00,2013-02-20 18:10:00,
2013-02-20 13:15:00,51.6,18.8,29.20,SW,232,2.5,5.6,27,0.00,,,0.00,VWS V14.00,2013-02-20 18:15:00,
2013-02-20 13:20:00,50.5,17.8,29.20,West,278,2.9,7.6,27,0.00,,,0.00,VWS V14.00,2013-02-20 18:20:00,
2013-02-20 13:26:00,50.2,17.5,29.20,WNW,300,4.7,7.4,27,0.00,,,0.00,VWS V14.00,2013-02-20 18:26:00,
2013-02-20 13:31:00,50.4,17.7,29.20,South,188,3.8,5.6,27,0.00,,,0.00,VWS V14.00,2013-02-20 18:31:00,
2013-02-20 13:36:00,50.2,17.5,29.17,SSW,210,1.1,6.5,27,0.00,,,0.00,VWS V14.00,2013-02-20 18:36:00,
2013-02-20 13:41:00,50.5,17.8,29.17,SSW,210,2.0,6.3,27,0.00,,,0.00,VWS V14.00,2013-02-20 18:41:00,
2013-02-20 13:46:00,50.9,18.1,29.17,SW,232,5.6,6.5,27,0.00,,,0.00,VWS V14.00,2013-02-20 18:46:00,
2013-02-20 13:51:00,50.7,18.0,29.17,SW,232,3.4,6.0,27,0.00,,,0.00,VWS V14.00,2013-02-20 18:51:00,
2013-02-20 13:56:00,50.7,18.0,29.17,SW,232,2.0,5.6,27,0.00,,,0.00,VWS V14.00,2013-02-20 18:56:00,
2013-02-20 14:01:00,52.3,18.5,29.17,West,278,2.9,2.9,26,0.00,,,0.00,VWS V14.00,2013-02-20 19:01:00,
2013-02-20 14:06:00,51.8,18.0,29.17,SSW,210,4.0,4.0,26,0.00,,,0.00,VWS V14.00,2013-02-20 19:06:00,
2013-02-20 14:11:00,52.9,19.0,29.17,South,188,4.0,4.0,26,0.00,,,0.00,VWS V14.00,2013-02-20 19:11:00,
2013-02-20 14:16:00,53.1,19.1,29.17,ENE,75,1.1,2.0,26,0.00,,,0.00,VWS V14.00,2013-02-20 19:16:00,
2013-02-20 14:21:00,53.4,19.4,29.17,South,188,2.0,5.8,26,0.00,,,0.00,VWS V14.00,2013-02-20 19:21:00,
2013-02-20 14:26:00,53.2,19.3,29.17,SE,142,3.6,3.6,26,0.00,,,0.00,VWS V14.00,2013-02-20 19:26:00,
2013-02-20 14:32:00,53.4,19.4,29.17,SSE,165,2.2,3.1,26,0.00,,,0.00,VWS V14.00,2013-02-20 19:32:00,
2013-02-20 14:37:00,53.1,19.1,29.14,WSW,255,2.2,3.1,26,0.00,,,0.00,VWS V14.00,2013-02-20 19:37:00,
2013-02-20 14:42:00,53.6,19.6,29.14,West,278,4.0,4.3,26,0.00,,,0.00,VWS V14.00,2013-02-20 19:42:00,
2013-02-20 14:47:00,53.4,19.4,29.14,West,278,2.9,2.9,26,0.00,,,0.00,VWS V14.00,2013-02-20 19:47:00,
2013-02-20 14:52:00,52.5,18.6,29.14,WNW,300,3.1,3.8,26,0.00,,,0.00,VWS V14.00,2013-02-20 19:52:00,
2013-02-20 14:57:00,52.3,18.5,29.14,NW,322,4.3,4.3,26,0.00,,,0.00,VWS V14.00,2013-02-20 19:57:00,
2013-02-20 15:02:00,52.2,18.3,29.14,WNW,300,5.4,6.5,26,0.00,,,0.00,VWS V14.00,2013-02-20 20:02:00,
2013-02-20 15:07:00,52.3,18.5,29.14,WNW,300,6.3,6.3,26,0.00,,,0.00,VWS V14.00,2013-02-20 20:07:00,
2013-02-20 15:12:00,52.7,18.8,29.14,NW,322,2.9,4.0,26,0.00,,,0.00,VWS V14.00,2013-02-20 20:12:00,
2013-02-20 15:17:00,53.2,19.3,29.14,WNW,300,2.5,2.7,26,0.00,,,0.00,VWS V14.00,2013-02-20 20:17:00,
2013-02-20 15:22:00,53.2,19.3,29.14,SW,232,3.4,3.8,26,0.00,,,0.00,VWS V14.00,2013-02-20 20:22:00,
2013-02-20 15:27:00,53.2,16.4,29.14,SW,232,3.6,6.3,23,0.00,,,0.00,VWS V14.00,2013-02-20 20:27:00,
2013-02-20 15:33:00,53.2,19.3,29.14,West,278,2.9,6.7,26,0.00,,,0.00,VWS V14.00,2013-02-20 20:33:00,
2013-02-20 15:38:00,53.6,16.7,29.14,WSW,255,2.2,4.9,23,0.00,,,0.00,VWS V14.00,2013-02-20 20:38:00,
2013-02-20 15:43:00,53.6,16.7,29.14,WSW,255,1.6,3.8,23,0.00,,,0.00,VWS V14.00,2013-02-20 20:43:00,
2013-02-20 15:48:00,53.6,16.7,29.14,WNW,300,4.9,7.4,23,0.00,,,0.00,VWS V14.00,2013-02-20 20:48:00,
2013-02-20 15:53:00,53.2,16.4,29.14,WNW,300,3.6,7.8,23,0.00,,,0.00,VWS V14.00,2013-02-20 20:53:00,
2013-02-20 15:58:00,53.2,19.3,29.14,West,278,1.6,4.7,26,0.00,,,0.00,VWS V14.00,2013-02-20 20:58:00,
2013-02-20 16:03:00,53.1,16.3,29.14,SW,232,2.7,5.8,23,0.00,,,0.00,VWS V14.00,2013-02-20 21:03:00,
2013-02-20 16:08:00,53.1,16.3,29.14,West,278,3.4,6.5,23,0.00,,,0.00,VWS V14.00,2013-02-20 21:08:00,
2013-02-20 16:13:00,53.2,19.3,29.14,NW,322,0.9,3.4,26,0.00,,,0.00,VWS V14.00,2013-02-20 21:13:00,
2013-02-20 16:18:00,53.1,19.1,29.14,WNW,300,2.7,4.0,26,0.00,,,0.00,VWS V14.00,2013-02-20 21:18:00,
2013-02-20 16:23:00,52.9,16.1,29.14,West,278,3.4,3.8,23,0.00,,,0.00,VWS V14.00,2013-02-20 21:23:00,
2013-02-20 16:29:00,52.3,15.7,29.14,NW,322,5.6,6.0,23,0.00,,,0.00,VWS V14.00,2013-02-20 21:29:00,
2013-02-20 16:34:00,52.0,15.4,29.14,WNW,300,2.7,3.1,23,0.00,,,0.00,VWS V14.00,2013-02-20 21:34:00,
2013-02-20 16:39:00,51.6,16.0,29.17,West,278,5.6,6.3,24,0.00,,,0.00,VWS V14.00,2013-02-20 21:39:00,
2013-02-20 16:44:00,51.4,15.9,29.17,WNW,300,2.7,5.4,24,0.00,,,0.00,VWS V14.00,2013-02-20 21:44:00,
2013-02-20 16:49:00,51.3,17.6,29.17,WNW,300,0.0,2.9,26,0.00,,,0.00,VWS V14.00,2013-02-20 21:49:00,
2013-02-20 16:54:00,50.9,17.2,29.17,West,278,2.0,3.6,26,0.00,,,0.00,VWS V14.00,2013-02-20 21:54:00,
2013-02-20 16:59:00,50.9,17.2,29.17,NW,322,2.5,3.6,26,0.00,,,0.00,VWS V14.00,2013-02-20 21:59:00,
2013-02-20 17:04:00,50.9,17.2,29.17,WNW,300,2.7,3.8,26,0.00,,,0.00,VWS V14.00,2013-02-20 22:04:00,
2013-02-20 17:09:00,50.5,15.1,29.20,WNW,300,3.6,4.3,24,0.00,,,0.00,VWS V14.00,2013-02-20 22:09:00,
2013-02-20 17:14:00,50.2,16.6,29.20,West,278,2.9,3.8,26,0.00,,,0.00,VWS V14.00,2013-02-20 22:14:00,
2013-02-20 17:19:00,50.0,16.5,29.20,SW,232,1.6,3.8,26,0.00,,,0.00,VWS V14.00,2013-02-20 22:19:00,
2013-02-20 17:24:00,49.6,16.2,29.20,West,278,0.0,0.0,26,0.00,,,0.00,VWS V14.00,2013-02-20 22:24:00,
2013-02-20 17:30:00,49.1,15.7,29.20,WNW,300,0.0,2.0,26,0.00,,,0.00,VWS V14.00,2013-02-20 22:30:00,
2013-02-20 17:35:00,48.9,15.6,29.20,WNW,300,2.0,3.6,26,0.00,,,0.00,VWS V14.00,2013-02-20 22:35:00,
2013-02-20 17:40:00,48.6,15.2,29.17,WNW,300,1.6,2.5,26,0.00,,,0.00,VWS V14.00,2013-02-20 22:40:00,
2013-02-20 17:45:00,48.6,13.4,29.17,NNW,345,3.6,4.3,24,0.00,,,0.00,VWS V14.00,2013-02-20 22:45:00,
2013-02-20 17:50:00,48.2,13.1,29.17,West,278,3.4,4.7,24,0.00,,,0.00,VWS V14.00,2013-02-20 22:50:00,
2013-02-20 17:55:00,47.8,15.5,29.20,WNW,300,2.9,3.6,27,0.00,,,0.00,VWS V14.00,2013-02-20 22:55:00,
2013-02-20 18:04:00,47.3,15.0,29.20,WNW,300,2.5,3.1,27,0.00,,,0.00,VWS V14.00,2013-02-20 23:04:00,
2013-02-20 18:09:00,46.8,14.6,29.20,WNW,300,3.4,3.4,27,0.00,,,0.00,VWS V14.00,2013-02-20 23:09:00,
2013-02-20 18:14:00,46.8,14.6,29.20,WNW,300,1.6,3.4,27,0.00,,,0.00,VWS V14.00,2013-02-20 23:14:00,
2013-02-20 18:19:00,46.4,14.2,29.20,West,278,1.6,3.4,27,0.00,,,0.00,VWS V14.00,2013-02-20 23:19:00,
2013-02-20 18:24:00,46.0,13.9,29.20,NW,322,0.0,3.8,27,0.00,,,0.00,VWS V14.00,2013-02-20 23:24:00,
2013-02-20 18:29:00,45.5,13.5,29.20,NW,322,0.0,2.2,27,0.00,,,0.00,VWS V14.00,2013-02-20 23:29:00,
2013-02-20 18:34:00,45.0,13.0,29.20,NW,322,0.0,2.0,27,0.00,,,0.00,VWS V14.00,2013-02-20 23:34:00,
2013-02-20 18:39:00,44.1,13.1,29.23,NW,322,0.0,0.0,28,0.00,,,0.00,VWS V14.00,2013-02-20 23:39:00,
2013-02-20 18:44:00,43.2,12.3,29.23,NW,322,0.0,0.0,28,0.00,,,0.00,VWS V14.00,2013-02-20 23:44:00,
2013-02-20 18:49:00,42.3,12.3,29.23,NW,322,0.0,0.0,29,0.00,,,0.00,VWS V14.00,2013-02-20 23:49:00,
2013-02-20 18:54:00,41.7,11.8,29.23,NW,322,0.0,0.0,29,0.00,,,0.00,VWS V14.00,2013-02-20 23:54:00,
2013-02-20 18:59:00,41.4,11.5,29.23,NW,322,2.0,2.2,29,0.00,,,0.00,VWS V14.00,2013-02-20 23:59:00,
2013-02-20 19:05:00,41.0,12.0,29.23,NNW,345,2.2,2.7,30,0.00,,,0.00,VWS V14.00,2013-02-21 00:05:00,
2013-02-20 19:10:00,40.5,13.6,29.26,NW,322,2.0,3.1,33,0.00,,,0.00,VWS V14.00,2013-02-21 00:10:00,
2013-02-20 19:15:00,40.6,12.4,29.26,WNW,300,1.6,2.9,31,0.00,,,0.00,VWS V14.00,2013-02-21 00:15:00,
2013-02-20 19:20:00,41.2,12.9,29.26,NW,322,2.5,2.7,31,0.00,,,0.00,VWS V14.00,2013-02-21 00:20:00,
2013-02-20 19:25:00,41.2,12.9,29.23,NW,322,2.5,3.4,31,0.00,,,0.00,VWS V14.00,2013-02-21 00:25:00,
2013-02-20 19:30:00,41.4,12.3,29.23,NW,322,2.5,3.4,30,0.00,,,0.00,VWS V14.00,2013-02-21 00:30:00,
2013-02-20 19:35:00,40.5,12.2,29.23,West,278,0.9,2.7,31,0.00,,,0.00,VWS V14.00,2013-02-21 00:35:00,
2013-02-20 19:40:00,39.7,12.3,29.26,WNW,300,0.0,1.3,32,0.00,,,0.00,VWS V14.00,2013-02-21 00:40:00,
2013-02-20 19:45:00,38.8,12.2,29.26,WNW,300,0.0,1.3,33,0.00,,,0.00,VWS V14.00,2013-02-21 00:45:00,
2013-02-20 19:50:00,38.7,11.4,29.26,NW,322,0.0,2.5,32,0.00,,,0.00,VWS V14.00,2013-02-21 00:50:00,
2013-02-20 19:55:00,38.8,11.5,29.26,WNW,300,1.6,2.7,32,0.00,,,0.00,VWS V14.00,2013-02-21 00:55:00,
2013-02-20 20:00:00,39.6,11.4,29.26,WNW,300,3.1,3.1,31,0.00,,,0.00,VWS V14.00,2013-02-21 01:00:00,
2013-02-20 20:06:00,39.9,11.8,29.26,NW,322,3.1,4.0,31,0.00,,,0.00,VWS V14.00,2013-02-21 01:06:00,
2013-02-20 20:11:00,40.5,11.5,29.26,WNW,300,3.6,3.8,30,0.00,,,0.00,VWS V14.00,2013-02-21 01:11:00,
2013-02-20 20:16:00,40.5,11.5,29.26,NW,322,3.1,3.6,30,0.00,,,0.00,VWS V14.00,2013-02-21 01:16:00,
2013-02-20 20:21:00,40.5,11.5,29.29,WNW,300,3.6,4.7,30,0.00,,,0.00,VWS V14.00,2013-02-21 01:21:00,
2013-02-20 20:26:00,40.6,11.6,29.29,NW,322,5.8,6.0,30,0.00,,,0.00,VWS V14.00,2013-02-21 01:26:00,
2013-02-20 20:31:00,40.6,11.6,29.29,WNW,300,3.6,5.8,30,0.00,,,0.00,VWS V14.00,2013-02-21 01:31:00,
2013-02-20 20:36:00,40.8,11.0,29.26,WNW,300,4.7,6.0,29,0.00,,,0.00,VWS V14.00,2013-02-21 01:36:00,
2013-02-20 20:41:00,41.2,11.4,29.26,WNW,300,5.4,5.8,29,0.00,,,0.00,VWS V14.00,2013-02-21 01:41:00,
2013-02-20 20:46:00,41.2,11.4,29.26,NW,322,2.7,5.8,29,0.00,,,0.00,VWS V14.00,2013-02-21 01:46:00,
2013-02-20 20:51:00,41.0,11.2,29.26,NW,322,2.9,4.9,29,0.00,,,0.00,VWS V14.00,2013-02-21 01:51:00,
2013-02-20 20:56:00,40.8,11.8,29.26,WNW,300,3.6,4.0,30,0.00,,,0.00,VWS V14.00,2013-02-21 01:56:00,
2013-02-20 21:01:00,40.6,11.6,29.26,NW,322,2.5,2.9,30,0.00,,,0.00,VWS V14.00,2013-02-21 02:01:00,
2013-02-20 21:06:00,40.3,11.3,29.29,NW,322,2.7,2.7,30,0.00,,,0.00,VWS V14.00,2013-02-21 02:06:00,
2013-02-20 21:11:00,40.3,11.3,29.29,NW,322,3.4,4.0,30,0.00,,,0.00,VWS V14.00,2013-02-21 02:11:00,
2013-02-20 21:16:00,39.9,11.0,29.29,NW,322,2.0,2.7,30,0.00,,,0.00,VWS V14.00,2013-02-21 02:16:00,
2013-02-20 21:21:00,39.6,10.7,29.26,NW,322,1.1,1.1,30,0.00,,,0.00,VWS V14.00,2013-02-21 02:21:00,
2013-02-20 21:27:00,39.2,10.4,29.26,WNW,300,2.2,3.1,30,0.00,,,0.00,VWS V14.00,2013-02-21 02:27:00,
2013-02-20 21:32:00,39.0,10.2,29.26,NW,322,2.7,2.7,30,0.00,,,0.00,VWS V14.00,2013-02-21 02:32:00,
2013-02-20 21:37:00,38.8,10.8,29.29,NW,322,3.6,3.6,31,0.00,,,0.00,VWS V14.00,2013-02-21 02:37:00,
2013-02-20 21:42:00,38.5,10.5,29.29,NW,322,1.1,1.3,31,0.00,,,0.00,VWS V14.00,2013-02-21 02:42:00,
2013-02-20 21:47:00,37.6,9.7,29.29,NNW,345,1.1,1.3,31,0.00,,,0.00,VWS V14.00,2013-02-21 02:47:00,
2013-02-20 21:52:00,37.4,9.5,29.29,WNW,300,2.0,2.2,31,0.00,,,0.00,VWS V14.00,2013-02-21 02:52:00,
2013-02-20 21:57:00,37.4,9.5,29.29,WNW,300,2.9,3.4,31,0.00,,,0.00,VWS V14.00,2013-02-21 02:57:00,
2013-02-20 22:02:00,37.2,9.4,29.29,NW,322,2.5,2.9,31,0.00,,,0.00,VWS V14.00,2013-02-21 03:02:00,
2013-02-20 22:07:00,37.4,9.5,29.29,NW,322,2.2,4.0,31,0.00,,,0.00,VWS V14.00,2013-02-21 03:07:00,
2013-02-20 22:12:00,37.2,10.1,29.29,NW,322,2.5,2.7,32,0.00,,,0.00,VWS V14.00,2013-02-21 03:12:00,
2013-02-20 22:17:00,37.0,9.9,29.29,WNW,300,1.6,2.7,32,0.00,,,0.00,VWS V14.00,2013-02-21 03:17:00,
2013-02-20 22:22:00,37.2,10.1,29.29,NW,322,2.7,4.9,32,0.00,,,0.00,VWS V14.00,2013-02-21 03:22:00,
2013-02-20 22:27:00,37.2,10.1,29.29,West,278,2.9,3.4,32,0.00,,,0.00,VWS V14.00,2013-02-21 03:27:00,
2013-02-20 22:32:00,37.2,10.1,29.29,WNW,300,1.3,2.9,32,0.00,,,0.00,VWS V14.00,2013-02-21 03:32:00,
2013-02-20 22:37:00,36.9,9.8,29.29,NNW,345,2.5,3.1,32,0.00,,,0.00,VWS V14.00,2013-02-21 03:37:00,
2013-02-20 22:42:00,36.9,9.8,29.29,NNW,345,2.0,3.6,32,0.00,,,0.00,VWS V14.00,2013-02-21 03:42:00,
2013-02-20 22:48:00,36.5,9.5,29.29,NW,322,2.7,3.1,32,0.00,,,0.00,VWS V14.00,2013-02-21 03:48:00,
2013-02-20 22:53:00,36.1,9.1,29.32,NW,322,1.6,1.6,32,0.00,,,0.00,VWS V14.00,2013-02-21 03:53:00,
2013-02-20 22:58:00,35.8,8.8,29.32,WNW,300,1.6,2.5,32,0.00,,,0.00,VWS V14.00,2013-02-21 03:58:00,
2013-02-20 23:03:00,35.6,8.7,29.32,WNW,300,2.0,2.9,32,0.00,,,0.00,VWS V14.00,2013-02-21 04:03:00,
2013-02-20 23:08:00,35.2,9.0,29.32,NNW,345,0.0,2.0,33,0.00,,,0.00,VWS V14.00,2013-02-21 04:08:00,
2013-02-20 23:13:00,35.1,8.9,29.32,NNE,30,0.0,0.0,33,0.00,,,0.00,VWS V14.00,2013-02-21 04:13:00,
2013-02-20 23:18:00,34.9,8.7,29.32,North,8,2.2,2.5,33,0.00,,,0.00,VWS V14.00,2013-02-21 04:18:00,
2013-02-20 23:23:00,34.9,9.4,29.29,NW,322,1.6,2.9,34,0.00,,,0.00,VWS V14.00,2013-02-21 04:23:00,
2013-02-20 23:28:00,34.7,9.2,29.29,North,8,1.6,2.2,34,0.00,,,0.00,VWS V14.00,2013-02-21 04:28:00,
2013-02-20 23:33:00,34.5,9.1,29.29,NW,322,2.5,3.8,34,0.00,,,0.00,VWS V14.00,2013-02-21 04:33:00,
2013-02-20 23:39:00,34.3,9.5,29.29,NW,322,0.0,2.2,35,0.00,,,0.00,VWS V14.00,2013-02-21 04:39:00,
2013-02-20 23:44:00,34.2,9.4,29.29,NW,322,2.0,2.7,35,0.00,,,0.00,VWS V14.00,2013-02-21 04:44:00,
2013-02-20 23:49:00,34.0,9.2,29.29,WNW,300,2.0,2.5,35,0.00,,,0.00,VWS V14.00,2013-02-21 04:49:00,
2013-02-20 23:54:00,33.6,9.5,29.29,NW,322,1.3,1.6,36,0.00,,,0.00,VWS V14.00,2013-02-21 04:54:00,
2013-02-20 23:59:00,33.4,9.4,29.29,NW,322,0.0,2.0,36,0.00,,,0.00,VWS V14.00,2013-02-21 04:59:00,